Home > Products > Valid Products > TAF

000
FTUS41 KRNK 240005 AAA
TAFLWB
TAF AMD
KLWB 240005Z 2400/2424 24004KT 1SM BR VV005
      TEMPO 2400/2401 5SM BR BKN050
     FM240100 VRB03KT 5SM BR BKN050
     FM240600 VRB03KT 2SM BR BKN040
     FM240900 VRB03KT 1SM BR OVC010
     FM241300 29003KT P6SM OVC050
     FM241400 29005KT P6SM VCTS BKN040CB
     FM241800 31007KT P6SM BKN050=



000
FTUS41 KRNK 240005 AAA
TAFLWB
TAF AMD
KLWB 240005Z 2400/2424 24004KT 1SM BR VV005
      TEMPO 2400/2401 5SM BR BKN050
     FM240100 VRB03KT 5SM BR BKN050
     FM240600 VRB03KT 2SM BR BKN040
     FM240900 VRB03KT 1SM BR OVC010
     FM241300 29003KT P6SM OVC050
     FM241400 29005KT P6SM VCTS BKN040CB
     FM241800 31007KT P6SM BKN050=



000
FTUS41 KRNK 232326
TAFBLF
TAF
KBLF 232326Z 2400/2424 27007KT P6SM SCT050 BKN200
     FM240200 27005KT P6SM VCTS BKN040CB
     FM240800 23005KT P6SM BKN050
     FM241300 26004KT P6SM BKN025
     FM241400 28005KT P6SM VCTS SCT040CB
     FM241800 30010KT P6SM BKN050=



000
FTUS41 KRNK 232326
TAFLWB
TAF
KLWB 232326Z 2400/2424 24004KT P6SM VCTS SCT025CB BKN080
     FM240600 VRB03KT 2SM BR BKN040
     FM240900 VRB03KT 1SM BR OVC010
     FM241300 29003KT P6SM OVC050
     FM241400 29005KT P6SM VCTS BKN040CB
     FM241800 31007KT P6SM BKN050=



000
FTUS41 KRNK 232326
TAFDAN
TAF
KDAN 232326Z 2400/2424 21005KT 4SM -TSRA BR BKN025CB
     FM240100 VRB03KT P6SM VCTS SCT040CB BKN100
     FM240600 VRB03KT P6SM BKN120
     FM241600 VRB04KT P6SM VCTS SCT040CB BKN120=



000
FTUS41 KRNK 232326
TAFROA
TAF
KROA 232326Z 2400/2424 29008KT P6SM VCTS SCT040CB BKN200
     FM240600 29004KT P6SM BKN150
     FM241500 28005KT P6SM VCTS SCT040CB BKN120
     FM242000 32007KT P6SM BKN050=



000
FTUS41 KRNK 232326
TAFLYH
TAF
KLYH 232326Z 2400/2424 23005KT P6SM VCTS SCT050CB BKN200
     FM240600 VRB03KT P6SM BKN100
     FM240800 VRB02KT 5SM BR SCT050 BKN120
     FM241500 27004KT P6SM VCTS SCT040CB BKN120
     FM242200 32005KT P6SM BKN050=



000
FTUS41 KRNK 232326
TAFLWB
TAF
KLWB 232326Z 2400/2424 24004KT P6SM VCTS SCT025CB BKN080
     FM240600 VRB03KT 2SM BR BKN040
     FM240900 VRB03KT 1SM BR OVC010
     FM241300 29003KT P6SM OVC050
     FM241400 29005KT P6SM VCTS BKN040CB
     FM241800 31007KT P6SM BKN050=



000
FTUS41 KRNK 232326
TAFDAN
TAF
KDAN 232326Z 2400/2424 21005KT 4SM -TSRA BR BKN025CB
     FM240100 VRB03KT P6SM VCTS SCT040CB BKN100
     FM240600 VRB03KT P6SM BKN120
     FM241600 VRB04KT P6SM VCTS SCT040CB BKN120=



000
FTUS41 KRNK 232326
TAFBLF
TAF
KBLF 232326Z 2400/2424 27007KT P6SM SCT050 BKN200
     FM240200 27005KT P6SM VCTS BKN040CB
     FM240800 23005KT P6SM BKN050
     FM241300 26004KT P6SM BKN025
     FM241400 28005KT P6SM VCTS SCT040CB
     FM241800 30010KT P6SM BKN050=



000
FTUS41 KRNK 232326
TAFROA
TAF
KROA 232326Z 2400/2424 29008KT P6SM VCTS SCT040CB BKN200
     FM240600 29004KT P6SM BKN150
     FM241500 28005KT P6SM VCTS SCT040CB BKN120
     FM242000 32007KT P6SM BKN050=



000
FTUS41 KRNK 232326
TAFLYH
TAF
KLYH 232326Z 2400/2424 23005KT P6SM VCTS SCT050CB BKN200
     FM240600 VRB03KT P6SM BKN100
     FM240800 VRB02KT 5SM BR SCT050 BKN120
     FM241500 27004KT P6SM VCTS SCT040CB BKN120
     FM242200 32005KT P6SM BKN050=



000
FTUS41 KRNK 232244 AAA
TAFLWB
TAF AMD
KLWB 232244Z 2323/2418 25010KT 2SM TSRA OVC015CB
     FM232330 25008KT P6SM VCTS SCT025CB BKN100
     FM240500 27003KT 5SM BR VCSH BKN040
     FM241300 31003KT 6SM BR OVC050
     FM241600 29003KT P6SM OVC045=



000
FTUS41 KRNK 232244 AAA
TAFLWB
TAF AMD
KLWB 232244Z 2323/2418 25010KT 2SM TSRA OVC015CB
     FM232330 25008KT P6SM VCTS SCT025CB BKN100
     FM240500 27003KT 5SM BR VCSH BKN040
     FM241300 31003KT 6SM BR OVC050
     FM241600 29003KT P6SM OVC045=



000
FTUS41 KRNK 232243 AAA
TAFDAN
TAF AMD
KDAN 232243Z 2323/2418 20006KT P6SM VCTS SCT050CB
     FM232315 20010G20KT 4SM -TSRA BKN025CB
     FM240100 VRB03KT P6SM BKN100
     FM240900 VRB03KT 5SM BR BKN250
     FM241300 VRB04KT P6SM BKN250
     FM241600 27004KT P6SM BKN060=



000
FTUS41 KRNK 231737
TAFBLF
TAF
KBLF 231737Z 2318/2418 30007KT P6SM VCSH BKN100
     FM231900 28007KT P6SM VCTS BKN045CB
     FM232300 29004KT P6SM SCT050 BKN250
     FM240700 27006KT P6SM VCTS BKN040CB
     FM241300 27004KT 4SM BR OVC012=



000
FTUS41 KRNK 231737
TAFROA
TAF
KROA 231737Z 2318/2418 26012KT P6SM SCT045 SCT250
     FM232000 26006KT P6SM VCTS BKN050CB
     FM232300 30006KT P6SM SCT050 BKN250
     FM240300 VRB03KT P6SM BKN120
     FM241500 27005KT P6SM OVC045=



000
FTUS41 KRNK 231737
TAFLYH
TAF
KLYH 231737Z 2318/2418 23005KT P6SM SCT050 BKN250
     FM240800 VRB02KT 5SM BR SCT050 BKN250
     FM241500 03002KT P6SM OVC060=



000
FTUS41 KRNK 231737
TAFBLF
TAF
KBLF 231737Z 2318/2418 30007KT P6SM VCSH BKN100
     FM231900 28007KT P6SM VCTS BKN045CB
     FM232300 29004KT P6SM SCT050 BKN250
     FM240700 27006KT P6SM VCTS BKN040CB
     FM241300 27004KT 4SM BR OVC012=



000
FTUS41 KRNK 231737
TAFROA
TAF
KROA 231737Z 2318/2418 26012KT P6SM SCT045 SCT250
     FM232000 26006KT P6SM VCTS BKN050CB
     FM232300 30006KT P6SM SCT050 BKN250
     FM240300 VRB03KT P6SM BKN120
     FM241500 27005KT P6SM OVC045=



000
FTUS41 KRNK 231737
TAFLWB
TAF
KLWB 231737Z 2318/2418 36003KT P6SM VCTS BKN050CB
     FM232300 30004KT P6SM SCT045 BKN250
     FM240500 27003KT 5SM BR VCSH BKN040
     FM241300 31003KT 6SM BR OVC050
     FM241600 29003KT P6SM OVC045=



000
FTUS41 KRNK 231737
TAFDAN
TAF
KDAN 231737Z 2318/2418 22007KT P6SM SCT050
     FM240900 VRB03KT 5SM BR BKN250
     FM241300 VRB04KT P6SM BKN250
     FM241600 27004KT P6SM BKN060=



000
FTUS41 KRNK 231737
TAFDAN
TAF
KDAN 231737Z 2318/2418 22007KT P6SM SCT050
     FM240900 VRB03KT 5SM BR BKN250
     FM241300 VRB04KT P6SM BKN250
     FM241600 27004KT P6SM BKN060=



000
FTUS41 KRNK 231737
TAFLYH
TAF
KLYH 231737Z 2318/2418 23005KT P6SM SCT050 BKN250
     FM240800 VRB02KT 5SM BR SCT050 BKN250
     FM241500 03002KT P6SM OVC060=



000
FTUS41 KRNK 231737
TAFLWB
TAF
KLWB 231737Z 2318/2418 36003KT P6SM VCTS BKN050CB
     FM232300 30004KT P6SM SCT045 BKN250
     FM240500 27003KT 5SM BR VCSH BKN040
     FM241300 31003KT 6SM BR OVC050
     FM241600 29003KT P6SM OVC045=



000
FTUS41 KRNK 231517 AAB
TAFBLF
TAF AMD
KBLF 231517Z 2315/2412 28007KT P6SM VCSH BKN018 BKN025
     FM231900 28007KT P6SM VCTS BKN045CB
     FM232300 29004KT P6SM SCT050 BKN250
     FM240700 27006KT P6SM VCTS BKN040CB=



000
FTUS41 KRNK 231436 AAA
TAFBLF
TAF AMD
KBLF 231436Z 2315/2412 28007KT P6SM VCSH SCT040
     FM231900 28007KT P6SM VCTS BKN045CB
     FM232300 29004KT P6SM SCT050 BKN250
     FM240700 27006KT P6SM VCTS BKN040CB=



000
FTUS41 KRNK 231436 AAA
TAFBLF
TAF AMD
KBLF 231436Z 2315/2412 28007KT P6SM VCSH SCT040
     FM231900 28007KT P6SM VCTS BKN045CB
     FM232300 29004KT P6SM SCT050 BKN250
     FM240700 27006KT P6SM VCTS BKN040CB=



000
FTUS41 KRNK 231233 AAA
TAFLWB
TAF AMD
KLWB 231233Z 2313/2412 26003KT 4SM BR SCT005 BKN030
     FM231330 27004KT P6SM SCT040
     FM231900 28005KT P6SM VCTS BKN050CB
     FM232300 30004KT P6SM SCT045 BKN250
     FM240500 27003KT 6SM BR VCTS BKN040CB=



000
FTUS41 KRNK 231233 AAA
TAFLWB
TAF AMD
KLWB 231233Z 2313/2412 26003KT 4SM BR SCT005 BKN030
     FM231330 27004KT P6SM SCT040
     FM231900 28005KT P6SM VCTS BKN050CB
     FM232300 30004KT P6SM SCT045 BKN250
     FM240500 27003KT 6SM BR VCTS BKN040CB=



000
FTUS41 KRNK 231128
TAFBLF
TAF
KBLF 231128Z 2312/2412 25005KT P6SM SKC
     FM231500 28007KT P6SM SCT040
     FM231900 28007KT P6SM VCTS BKN045CB
     FM232300 29004KT P6SM SCT050 BKN250
     FM240700 27006KT P6SM VCTS BKN040CB=



000
FTUS41 KRNK 231128
TAFDAN
TAF
KDAN 231128Z 2312/2412 00000KT P6SM SKC
     FM231500 25006KT P6SM SCT050
     FM232200 24006KT P6SM BKN070=



000
FTUS41 KRNK 231128
TAFROA
TAF
KROA 231128Z 2312/2412 30003KT P6SM SCT250
     FM231400 26005KT P6SM SCT040
     FM231900 26006KT P6SM VCTS BKN050CB
     FM232300 30006KT P6SM SCT050 BKN250=



000
FTUS41 KRNK 231128
TAFLWB
TAF
KLWB 231128Z 2312/2412 00000KT 1SM BR SCT001
      TEMPO 2312/2313 1/2SM FG BKN001
     FM231330 26003KT 4SM BR SCT005 BKN030
     FM231500 27004KT P6SM SCT040
     FM231900 28005KT P6SM VCTS BKN050CB
     FM232300 30004KT P6SM SCT045 BKN250
     FM240500 27003KT 6SM BR VCTS BKN040CB=



000
FTUS41 KRNK 231128
TAFLYH
TAF
KLYH 231128Z 2312/2412 21003KT P6SM SCT100
     FM231700 23005KT P6SM SCT050 BKN250=



000
FTUS41 KRNK 231128
TAFBLF
TAF
KBLF 231128Z 2312/2412 25005KT P6SM SKC
     FM231500 28007KT P6SM SCT040
     FM231900 28007KT P6SM VCTS BKN045CB
     FM232300 29004KT P6SM SCT050 BKN250
     FM240700 27006KT P6SM VCTS BKN040CB=



000
FTUS41 KRNK 231128
TAFLWB
TAF
KLWB 231128Z 2312/2412 00000KT 1SM BR SCT001
      TEMPO 2312/2313 1/2SM FG BKN001
     FM231330 26003KT 4SM BR SCT005 BKN030
     FM231500 27004KT P6SM SCT040
     FM231900 28005KT P6SM VCTS BKN050CB
     FM232300 30004KT P6SM SCT045 BKN250
     FM240500 27003KT 6SM BR VCTS BKN040CB=



000
FTUS41 KRNK 231128
TAFROA
TAF
KROA 231128Z 2312/2412 30003KT P6SM SCT250
     FM231400 26005KT P6SM SCT040
     FM231900 26006KT P6SM VCTS BKN050CB
     FM232300 30006KT P6SM SCT050 BKN250=



000
FTUS41 KRNK 231128
TAFLYH
TAF
KLYH 231128Z 2312/2412 21003KT P6SM SCT100
     FM231700 23005KT P6SM SCT050 BKN250=



000
FTUS41 KRNK 231128
TAFDAN
TAF
KDAN 231128Z 2312/2412 00000KT P6SM SKC
     FM231500 25006KT P6SM SCT050
     FM232200 24006KT P6SM BKN070=



000
FTUS41 KRNK 230933 AAA
TAFLWB
TAF AMD
KLWB 230933Z 2310/2406 00000KT P6SM SCT040
      TEMPO 2310/2312 2SM BR BKN001
     FM231330 26003KT 4SM BR SCT005 BKN030
     FM231500 27004KT P6SM SCT040
     FM231900 28005KT P6SM VCTS BKN050CB
     FM240000 30004KT P6SM SCT045 BKN250=



000
FTUS41 KRNK 230933 AAA
TAFLWB
TAF AMD
KLWB 230933Z 2310/2406 00000KT P6SM SCT040
      TEMPO 2310/2312 2SM BR BKN001
     FM231330 26003KT 4SM BR SCT005 BKN030
     FM231500 27004KT P6SM SCT040
     FM231900 28005KT P6SM VCTS BKN050CB
     FM240000 30004KT P6SM SCT045 BKN250=



000
FTUS41 KRNK 230735 AAA
TAFDAN
TAF AMD
KDAN 230735Z 2308/2406 00000KT 4SM BR SKC
      TEMPO 2308/2312 2SM BR BKN002
     FM231230 24005KT P6SM SCT040
     FM232200 24006KT P6SM BKN070=



000
FTUS41 KRNK 230735 AAA
TAFDAN
TAF AMD
KDAN 230735Z 2308/2406 00000KT 4SM BR SKC
      TEMPO 2308/2312 2SM BR BKN002
     FM231230 24005KT P6SM SCT040
     FM232200 24006KT P6SM BKN070=



000
FTUS41 KRNK 230533
TAFROA
TAF
KROA 230533Z 2306/2406 00000KT P6SM SKC
     FM231400 26005KT P6SM SCT040
     FM231900 26006KT P6SM VCTS BKN050CB
     FM240000 30006KT P6SM SCT050 BKN250=



000
FTUS41 KRNK 230533
TAFDAN
TAF
KDAN 230533Z 2306/2406 00000KT P6SM SKC
     FM230900 00000KT 4SM BR SKC
     FM231230 24005KT P6SM SCT040
     FM232200 24006KT P6SM BKN070=



000
FTUS41 KRNK 230533
TAFBLF
TAF
KBLF 230533Z 2306/2406 17004KT P6SM SKC
     FM231500 28007KT P6SM SCT040
     FM231900 28007KT P6SM VCTS BKN045CB
     FM240000 29005KT P6SM SCT040 BKN250=



000
FTUS41 KRNK 230533
TAFLWB
TAF
KLWB 230533Z 2306/2406 00000KT P6SM SCT045
     FM230800 00000KT 2SM BR SCT040
      TEMPO 2309/2312 1/2SM FG BKN001
     FM231330 26003KT 4SM BR SCT005 BKN030
     FM231500 27004KT P6SM SCT040
     FM231900 28005KT P6SM VCTS BKN050CB
     FM240000 30004KT P6SM SCT045 BKN250=



000
FTUS41 KRNK 230533
TAFLYH
TAF
KLYH 230533Z 2306/2406 00000KT P6SM SKC
      TEMPO 2308/2312 3SM BR
     FM231700 23005KT P6SM SCT050 BKN250=



000
FTUS41 KRNK 230533
TAFLWB
TAF
KLWB 230533Z 2306/2406 00000KT P6SM SCT045
     FM230800 00000KT 2SM BR SCT040
      TEMPO 2309/2312 1/2SM FG BKN001
     FM231330 26003KT 4SM BR SCT005 BKN030
     FM231500 27004KT P6SM SCT040
     FM231900 28005KT P6SM VCTS BKN050CB
     FM240000 30004KT P6SM SCT045 BKN250=



000
FTUS41 KRNK 230533
TAFDAN
TAF
KDAN 230533Z 2306/2406 00000KT P6SM SKC
     FM230900 00000KT 4SM BR SKC
     FM231230 24005KT P6SM SCT040
     FM232200 24006KT P6SM BKN070=



000
FTUS41 KRNK 230533
TAFBLF
TAF
KBLF 230533Z 2306/2406 17004KT P6SM SKC
     FM231500 28007KT P6SM SCT040
     FM231900 28007KT P6SM VCTS BKN045CB
     FM240000 29005KT P6SM SCT040 BKN250=



000
FTUS41 KRNK 230533
TAFROA
TAF
KROA 230533Z 2306/2406 00000KT P6SM SKC
     FM231400 26005KT P6SM SCT040
     FM231900 26006KT P6SM VCTS BKN050CB
     FM240000 30006KT P6SM SCT050 BKN250=



000
FTUS41 KRNK 230533
TAFLYH
TAF
KLYH 230533Z 2306/2406 00000KT P6SM SKC
      TEMPO 2308/2312 3SM BR
     FM231700 23005KT P6SM SCT050 BKN250=



000
FTUS41 KRNK 222321
TAFDAN
TAF
KDAN 222321Z 2300/2324 VRB03KT P6SM VCTS SCT050CB
     FM230200 VRB03KT P6SM SCT040
     FM230600 24003KT 4SM BR SCT015
     FM231400 25006KT P6SM SCT040=



000
FTUS41 KRNK 222321
TAFLYH
TAF
KLYH 222321Z 2300/2324 18005KT P6SM SCT040
     FM230200 VRB03KT P6SM SCT040
     FM230500 VRB03KT P6SM SCT025
     FM231400 24005KT P6SM SCT050=



000
FTUS41 KRNK 222321
TAFLWB
TAF
KLWB 222321Z 2300/2324 16003KT P6SM VCSH SCT050
     FM230200 VRB03KT P6SM SCT040
     FM230600 00000KT 1/4SM FG OVC001
     FM231330 VRB03KT 4SM BR SCT005 BKN030
     FM231500 27005KT P6SM SCT040
     FM231900 28005KT P6SM VCTS SCT050CB=



000
FTUS41 KRNK 222321
TAFBLF
TAF
KBLF 222321Z 2300/2324 VRB03KT P6SM VCSH SCT040
     FM230200 VRB03KT P6SM SCT040
     FM231500 28007KT P6SM SCT040
     FM231900 28007KT P6SM VCTS SCT050CB=



000
FTUS41 KRNK 222321
TAFBLF
TAF
KBLF 222321Z 2300/2324 VRB03KT P6SM VCSH SCT040
     FM230200 VRB03KT P6SM SCT040
     FM231500 28007KT P6SM SCT040
     FM231900 28007KT P6SM VCTS SCT050CB=



000
FTUS41 KRNK 222321
TAFLWB
TAF
KLWB 222321Z 2300/2324 16003KT P6SM VCSH SCT050
     FM230200 VRB03KT P6SM SCT040
     FM230600 00000KT 1/4SM FG OVC001
     FM231330 VRB03KT 4SM BR SCT005 BKN030
     FM231500 27005KT P6SM SCT040
     FM231900 28005KT P6SM VCTS SCT050CB=



000
FTUS41 KRNK 222321
TAFROA
TAF
KROA 222321Z 2300/2324 12006KT P6SM SCT040
     FM230200 VRB03KT P6SM SCT025
     FM231400 24007KT P6SM SCT050
     FM231900 25007KT P6SM VCTS SCT040CB=



000
FTUS41 KRNK 222321
TAFROA
TAF
KROA 222321Z 2300/2324 12006KT P6SM SCT040
     FM230200 VRB03KT P6SM SCT025
     FM231400 24007KT P6SM SCT050
     FM231900 25007KT P6SM VCTS SCT040CB=



000
FTUS41 KRNK 222321
TAFLYH
TAF
KLYH 222321Z 2300/2324 18005KT P6SM SCT040
     FM230200 VRB03KT P6SM SCT040
     FM230500 VRB03KT P6SM SCT025
     FM231400 24005KT P6SM SCT050=



000
FTUS41 KRNK 222321
TAFDAN
TAF
KDAN 222321Z 2300/2324 VRB03KT P6SM VCTS SCT050CB
     FM230200 VRB03KT P6SM SCT040
     FM230600 24003KT 4SM BR SCT015
     FM231400 25006KT P6SM SCT040=



000
FTUS41 KRNK 221722
TAFDAN
TAF
KDAN 221722Z 2218/2318 05005KT P6SM VCTS SCT025 BKN040CB
      TEMPO 2218/2222 4SM SHRA BKN025
     FM222300 12003KT P6SM BKN035 BKN060
     FM230700 24003KT 4SM BR SCT015
     FM231400 25006KT P6SM BKN040=



000
FTUS41 KRNK 221722
TAFBLF
TAF
KBLF 221722Z 2218/2318 VRB05KT P6SM SCT025 BKN035
     FM222300 17004KT P6SM SCT045
     FM230700 22003KT 4SM BR BKN250
     FM231400 28006KT P6SM BKN040=



000
FTUS41 KRNK 221722
TAFLYH
TAF
KLYH 221722Z 2218/2318 17006KT P6SM VCSH SCT030 BKN045
     FM230600 00000KT 4SM BR SCT035 SCT080
      TEMPO 2308/2311 2SM BR BKN025
     FM231400 22005KT P6SM SCT060=



000
FTUS41 KRNK 221722
TAFROA
TAF
KROA 221722Z 2218/2318 16005KT P6SM VCSH BKN035 BKN050
     FM222100 17005KT P6SM SCT030 BKN045
     FM230000 17003KT P6SM SCT040 BKN100
     FM230900 VRB03KT 6SM BR SCT015 BKN035
     FM231400 26007KT P6SM SCT050=



000
FTUS41 KRNK 221722
TAFLWB
TAF
KLWB 221722Z 2218/2318 24003KT P6SM BKN035 BKN050
     FM222000 18004KT P6SM VCTS BKN040CB
     FM230000 00000KT 6SM HZ SCT040 BKN250
     FM230700 00000KT 1/4SM FG OVC001
     FM231330 VRB03KT 4SM BR SCT005 BKN030
     FM231500 27004KT P6SM BKN045=



000
FTUS41 KRNK 221722
TAFDAN
TAF
KDAN 221722Z 2218/2318 05005KT P6SM VCTS SCT025 BKN040CB
      TEMPO 2218/2222 4SM SHRA BKN025
     FM222300 12003KT P6SM BKN035 BKN060
     FM230700 24003KT 4SM BR SCT015
     FM231400 25006KT P6SM BKN040=



000
FTUS41 KRNK 221722
TAFLWB
TAF
KLWB 221722Z 2218/2318 24003KT P6SM BKN035 BKN050
     FM222000 18004KT P6SM VCTS BKN040CB
     FM230000 00000KT 6SM HZ SCT040 BKN250
     FM230700 00000KT 1/4SM FG OVC001
     FM231330 VRB03KT 4SM BR SCT005 BKN030
     FM231500 27004KT P6SM BKN045=



000
FTUS41 KRNK 221722
TAFLYH
TAF
KLYH 221722Z 2218/2318 17006KT P6SM VCSH SCT030 BKN045
     FM230600 00000KT 4SM BR SCT035 SCT080
      TEMPO 2308/2311 2SM BR BKN025
     FM231400 22005KT P6SM SCT060=



000
FTUS41 KRNK 221722
TAFBLF
TAF
KBLF 221722Z 2218/2318 VRB05KT P6SM SCT025 BKN035
     FM222300 17004KT P6SM SCT045
     FM230700 22003KT 4SM BR BKN250
     FM231400 28006KT P6SM BKN040=



000
FTUS41 KRNK 221722
TAFROA
TAF
KROA 221722Z 2218/2318 16005KT P6SM VCSH BKN035 BKN050
     FM222100 17005KT P6SM SCT030 BKN045
     FM230000 17003KT P6SM SCT040 BKN100
     FM230900 VRB03KT 6SM BR SCT015 BKN035
     FM231400 26007KT P6SM SCT050=



000
FTUS41 KRNK 221503 AAA
TAFLWB
TAF AMD
KLWB 221503Z 2215/2312 00000KT P6SM SCT015 BKN025
     FM221700 16003KT P6SM BKN035
     FM222000 18004KT P6SM VCTS BKN040CB
     FM230000 00000KT 6SM HZ SCT040 BKN250
     FM230700 00000KT 1/2SM FG OVC001=



000
FTUS41 KRNK 221503 AAA
TAFLWB
TAF AMD
KLWB 221503Z 2215/2312 00000KT P6SM SCT015 BKN025
     FM221700 16003KT P6SM BKN035
     FM222000 18004KT P6SM VCTS BKN040CB
     FM230000 00000KT 6SM HZ SCT040 BKN250
     FM230700 00000KT 1/2SM FG OVC001=



000
FTUS41 KRNK 221502 AAA
TAFROA
TAF AMD
KROA 221502Z 2215/2312 13007KT P6SM BKN030 BKN060
     FM221700 13004KT P6SM SCT020 BKN040
     FM222100 17005KT P6SM VCTS SCT030 BKN045CB
     FM230000 17003KT P6SM SCT040 BKN250=



000
FTUS41 KRNK 221502 AAA
TAFROA
TAF AMD
KROA 221502Z 2215/2312 13007KT P6SM BKN030 BKN060
     FM221700 13004KT P6SM SCT020 BKN040
     FM222100 17005KT P6SM VCTS SCT030 BKN045CB
     FM230000 17003KT P6SM SCT040 BKN250=



000
FTUS41 KRNK 221330 AAA
TAFDAN
TAF AMD
KDAN 221330Z 2214/2312 11005KT P6SM OVC003
      TEMPO 2214/2216 SCT005 BKN025
     FM221600 07004KT P6SM SCT015 BKN030
     FM221800 10005KT P6SM VCTS BKN045CB
     FM222300 12003KT P6SM SCT050 BKN250
     FM230700 24003KT 4SM BR BKN250=



000
FTUS41 KRNK 221330 AAA
TAFDAN
TAF AMD
KDAN 221330Z 2214/2312 11005KT P6SM OVC003
      TEMPO 2214/2216 SCT005 BKN025
     FM221600 07004KT P6SM SCT015 BKN030
     FM221800 10005KT P6SM VCTS BKN045CB
     FM222300 12003KT P6SM SCT050 BKN250
     FM230700 24003KT 4SM BR BKN250=



000
FTUS41 KRNK 221330 CCA
TAFDAN
TAF COR
KDAN 221330Z 2214/2312 11005KT P6SM OVC003
      TEMPO 2214/2216 SCT005 BKN025
     FM221600 07004KT P6SM SCT015 BKN030
     FM221800 10005KT P6SM VCTS BKN045CB
     FM222300 12003KT P6SM SCT050 BKN250
     FM230700 24003KT 4SM BR BKN250=



000
FTUS41 KRNK 221240 AAA
TAFBLF
TAF AMD
KBLF 221240Z 2213/2312 11003KT P6SM SCT012 BKN035
      TEMPO 2213/2215 BKN012
     FM221600 14005KT P6SM BKN040
     FM222300 17004KT P6SM SCT045 BKN250
     FM230700 22003KT 4SM BR BKN250=



000
FTUS41 KRNK 221240 AAA
TAFBLF
TAF AMD
KBLF 221240Z 2213/2312 11003KT P6SM SCT012 BKN035
      TEMPO 2213/2215 BKN012
     FM221600 14005KT P6SM BKN040
     FM222300 17004KT P6SM SCT045 BKN250
     FM230700 22003KT 4SM BR BKN250=



000
FTUS41 KRNK 221231 AAA
TAFLYH
TAF AMD
KLYH 221231Z 2213/2312 00000KT P6SM SCT015 BKN035
      TEMPO 2213/2215 BKN015
     FM221600 15004KT P6SM BKN045
     FM230500 00000KT 4SM BR SCT035 BKN250=



000
FTUS41 KRNK 221231 AAA
TAFLYH
TAF AMD
KLYH 221231Z 2213/2312 00000KT P6SM SCT015 BKN035
      TEMPO 2213/2215 BKN015
     FM221600 15004KT P6SM BKN045
     FM230500 00000KT 4SM BR SCT035 BKN250=



000
FTUS41 KRNK 221129
TAFBLF
TAF
KBLF 221129Z 2212/2312 00000KT P6SM FEW012 BKN250
      TEMPO 2212/2214 BKN012
     FM221600 14005KT P6SM BKN040
     FM222300 17004KT P6SM SCT045 BKN250
     FM230700 22003KT 4SM BR BKN250=



000
FTUS41 KRNK 221129
TAFLWB
TAF
KLWB 221129Z 2212/2312 00000KT 4SM BR BKN021
      TEMPO 2212/2214 2SM BR SCT021
     FM221500 16004KT P6SM BKN040
     FM222000 18004KT P6SM VCTS BKN040CB
     FM230000 00000KT 6SM HZ SCT040 BKN250
     FM230700 00000KT 1/2SM FG OVC001=



000
FTUS41 KRNK 221129
TAFLYH
TAF
KLYH 221129Z 2212/2312 00000KT P6SM SCT005 OVC025
      TEMPO 2212/2213 OVC005
     FM221600 15004KT P6SM BKN045
     FM230500 00000KT 4SM BR SCT035 BKN250=



000
FTUS41 KRNK 221129
TAFROA
TAF
KROA 221129Z 2212/2312 09003KT P6SM SCT006 OVC015
      TEMPO 2212/2213 OVC006
     FM221600 13004KT P6SM SCT020 BKN040
     FM222100 17005KT P6SM VCTS SCT030 BKN045CB
     FM230000 17003KT P6SM SCT040 BKN250=



000
FTUS41 KRNK 221129
TAFDAN
TAF
KDAN 221129Z 2212/2312 08003KT 1/2SM FG OVC002
     FM221200 08004KT 2SM BR OVC009
     FM221400 07004KT P6SM OVC030
     FM221700 10005KT P6SM VCTS BKN045CB
     FM222300 12003KT P6SM SCT050 BKN250
     FM230700 24003KT 4SM BR BKN250=



000
FTUS41 KRNK 221129
TAFLWB
TAF
KLWB 221129Z 2212/2312 00000KT 4SM BR BKN021
      TEMPO 2212/2214 2SM BR SCT021
     FM221500 16004KT P6SM BKN040
     FM222000 18004KT P6SM VCTS BKN040CB
     FM230000 00000KT 6SM HZ SCT040 BKN250
     FM230700 00000KT 1/2SM FG OVC001=



000
FTUS41 KRNK 221129
TAFLYH
TAF
KLYH 221129Z 2212/2312 00000KT P6SM SCT005 OVC025
      TEMPO 2212/2213 OVC005
     FM221600 15004KT P6SM BKN045
     FM230500 00000KT 4SM BR SCT035 BKN250=



000
FTUS41 KRNK 221129
TAFROA
TAF
KROA 221129Z 2212/2312 09003KT P6SM SCT006 OVC015
      TEMPO 2212/2213 OVC006
     FM221600 13004KT P6SM SCT020 BKN040
     FM222100 17005KT P6SM VCTS SCT030 BKN045CB
     FM230000 17003KT P6SM SCT040 BKN250=



000
FTUS41 KRNK 221129
TAFBLF
TAF
KBLF 221129Z 2212/2312 00000KT P6SM FEW012 BKN250
      TEMPO 2212/2214 BKN012
     FM221600 14005KT P6SM BKN040
     FM222300 17004KT P6SM SCT045 BKN250
     FM230700 22003KT 4SM BR BKN250=



000
FTUS41 KRNK 221129
TAFDAN
TAF
KDAN 221129Z 2212/2312 08003KT 1/2SM FG OVC002
     FM221200 08004KT 2SM BR OVC009
     FM221400 07004KT P6SM OVC030
     FM221700 10005KT P6SM VCTS BKN045CB
     FM222300 12003KT P6SM SCT050 BKN250
     FM230700 24003KT 4SM BR BKN250=



000
FTUS41 KRNK 220807 AAA
TAFDAN
TAF AMD
KDAN 220807Z 2208/2306 07003KT 2SM BR SCT002 OVC025
      TEMPO 2208/2212 1/2SM FG OVC002
     FM221400 10004KT P6SM OVC015
     FM221800 11005KT P6SM BKN045
     FM222100 12004KT P6SM VCTS BKN050CB
     FM230100 20003KT P6SM SCT050 BKN250=



000
FTUS41 KRNK 220807 AAA
TAFDAN
TAF AMD
KDAN 220807Z 2208/2306 07003KT 2SM BR SCT002 OVC025
      TEMPO 2208/2212 1/2SM FG OVC002
     FM221400 10004KT P6SM OVC015
     FM221800 11005KT P6SM BKN045
     FM222100 12004KT P6SM VCTS BKN050CB
     FM230100 20003KT P6SM SCT050 BKN250=



000
FTUS41 KRNK 220731 AAA
TAFROA
TAF AMD
KROA 220731Z 2208/2306 13003KT P6SM OVC006
      TEMPO 2209/2212 2SM -DZ BR OVC005
     FM221600 13004KT P6SM SCT020 BKN040
     FM222100 17005KT P6SM VCTS SCT030 BKN045CB
     FM230000 17003KT P6SM SCT040 BKN250=



000
FTUS41 KRNK 220731 AAA
TAFROA
TAF AMD
KROA 220731Z 2208/2306 13003KT P6SM OVC006
      TEMPO 2209/2212 2SM -DZ BR OVC005
     FM221600 13004KT P6SM SCT020 BKN040
     FM222100 17005KT P6SM VCTS SCT030 BKN045CB
     FM230000 17003KT P6SM SCT040 BKN250=



000
FTUS41 KRNK 220730 AAA
TAFLWB
TAF AMD
KLWB 220730Z 2208/2306 00000KT 1/4SM FG OVC001
     FM221330 00000KT 4SM BR OVC015
     FM221600 17005KT P6SM BKN040
     FM222000 18004KT P6SM VCTS BKN040CB
     FM230000 00000KT 6SM HZ SCT040 BKN250=



000
FTUS41 KRNK 220730 AAA
TAFLWB
TAF AMD
KLWB 220730Z 2208/2306 00000KT 1/4SM FG OVC001
     FM221330 00000KT 4SM BR OVC015
     FM221600 17005KT P6SM BKN040
     FM222000 18004KT P6SM VCTS BKN040CB
     FM230000 00000KT 6SM HZ SCT040 BKN250=



000
FTUS41 KRNK 220538
TAFROA
TAF
KROA 220538Z 2206/2306 00000KT P6SM BKN024
      TEMPO 2209/2212 2SM -DZ BR OVC005
     FM221600 13004KT P6SM SCT020 BKN040
     FM222100 17005KT P6SM VCTS SCT030 BKN045CB
     FM230000 17003KT P6SM SCT040 BKN250=



000
FTUS41 KRNK 220538
TAFDAN
TAF
KDAN 220538Z 2206/2306 00000KT 5SM BR OVC002
      TEMPO 2206/2207 SCT002 OVC035
     FM221400 10004KT P6SM OVC015
     FM221800 11005KT P6SM BKN045
     FM222100 12004KT P6SM VCTS BKN050CB
     FM230100 20003KT P6SM SCT050 BKN250=



000
FTUS41 KRNK 220538
TAFLYH
TAF
KLYH 220538Z 2206/2306 00000KT P6SM OVC006
     FM220900 00000KT 3SM -DZ BR OVC003
     FM221400 13003KT P6SM OVC015
     FM221800 15004KT P6SM VCSH BKN040
     FM230000 16003KT P6SM BKN045=



000
FTUS41 KRNK 220538
TAFLWB
TAF
KLWB 220538Z 2206/2306 00000KT 5SM BR SCT250
     FM220800 00000KT 2SM BR SCT003 BKN250
      TEMPO 2210/2212 1/2SM FG OVC001
     FM221330 00000KT 4SM BR OVC015
     FM221600 17005KT P6SM BKN040
     FM222000 18004KT P6SM VCTS BKN040CB
     FM230000 00000KT 6SM HZ SCT040 BKN250=



000
FTUS41 KRNK 220538
TAFBLF
TAF
KBLF 220538Z 2206/2306 13003KT P6SM SCT014 BKN250
     FM221000 12003KT 4SM BR SCT005 BKN250
      TEMPO 2210/2212 OVC005
     FM221400 14004KT P6SM OVC025
     FM221600 14004KT P6SM BKN040
     FM230000 15003KT P6SM SCT040 BKN250=



000
FTUS41 KRNK 220446 AAC
TAFLWB
TAF AMD
KLWB 220446Z 2205/2224 00000KT P6SM SCT250
     FM220600 00000KT 3SM BR SCT003 OVC012
      TEMPO 2209/2212 1/4SM FG OVC001
     FM221430 VRB03KT P6SM BKN025 BKN040
     FM221600 17005KT P6SM BKN040=



000
FTUS41 KRNK 220446 AAC
TAFLWB
TAF AMD
KLWB 220446Z 2205/2224 00000KT P6SM SCT250
     FM220600 00000KT 3SM BR SCT003 OVC012
      TEMPO 2209/2212 1/4SM FG OVC001
     FM221430 VRB03KT P6SM BKN025 BKN040
     FM221600 17005KT P6SM BKN040=



000
FTUS41 KRNK 220445 AAC
TAFDAN
TAF AMD
KDAN 220445Z 2205/2224 09004KT P6SM VCSH OVC002
      TEMPO 2205/2207 SCT002 OVC035
     FM220800 07003KT 4SM BR OVC003
     FM221500 14004KT P6SM SCT025 BKN035
     FM221800 15005KT P6SM VCTS SCT030 BKN045CB=



000
FTUS41 KRNK 220445 AAC
TAFDAN
TAF AMD
KDAN 220445Z 2205/2224 09004KT P6SM VCSH OVC002
      TEMPO 2205/2207 SCT002 OVC035
     FM220800 07003KT 4SM BR OVC003
     FM221500 14004KT P6SM SCT025 BKN035
     FM221800 15005KT P6SM VCTS SCT030 BKN045CB=



000
FTUS41 KRNK 220346 AAB
TAFLWB
TAF AMD
KLWB 220346Z 2204/2224 00000KT P6SM BKN015
     FM220400 00000KT 4SM BR OVC010
     FM220600 00000KT 1SM BR SCT001 OVC008
      TEMPO 2209/2212 1/4SM FG OVC001
     FM221430 VRB03KT P6SM BKN025 BKN040
     FM221600 17005KT P6SM BKN040=



000
FTUS41 KRNK 220346 AAB
TAFLYH
TAF AMD
KLYH 220346Z 2204/2224 VRB03KT P6SM BKN010
     FM220600 00000KT 4SM BR OVC015
     FM220900 00000KT 2SM BR OVC003
     FM221500 17003KT P6SM SCT025 BKN045
     FM221800 16004KT P6SM VCTS SCT030 BKN045CB=



000
FTUS41 KRNK 220346 AAB
TAFLYH
TAF AMD
KLYH 220346Z 2204/2224 VRB03KT P6SM BKN010
     FM220600 00000KT 4SM BR OVC015
     FM220900 00000KT 2SM BR OVC003
     FM221500 17003KT P6SM SCT025 BKN045
     FM221800 16004KT P6SM VCTS SCT030 BKN045CB=



000
FTUS41 KRNK 220346 AAB
TAFLWB
TAF AMD
KLWB 220346Z 2204/2224 00000KT P6SM BKN015
     FM220400 00000KT 4SM BR OVC010
     FM220600 00000KT 1SM BR SCT001 OVC008
      TEMPO 2209/2212 1/4SM FG OVC001
     FM221430 VRB03KT P6SM BKN025 BKN040
     FM221600 17005KT P6SM BKN040=



000
FTUS41 KRNK 220304 AAB
TAFDAN
TAF AMD
KDAN 220304Z 2203/2224 09004KT P6SM BKN015
     FM220500 00000KT 5SM BR SCT006 OVC015
     FM220900 00000KT 3SM BR BKN004 OVC010
     FM221500 14004KT P6SM SCT025 BKN035
     FM221800 15005KT P6SM VCTS SCT030 BKN045CB=



000
FTUS41 KRNK 220304 AAB
TAFDAN
TAF AMD
KDAN 220304Z 2203/2224 09004KT P6SM BKN015
     FM220500 00000KT 5SM BR SCT006 OVC015
     FM220900 00000KT 3SM BR BKN004 OVC010
     FM221500 14004KT P6SM SCT025 BKN035
     FM221800 15005KT P6SM VCTS SCT030 BKN045CB=



000
FTUS41 KRNK 220203 AAA
TAFLWB
TAF AMD
KLWB 220203Z 2202/2224 00000KT P6SM BKN200
     FM220400 00000KT 4SM BR OVC025
     FM220600 00000KT 1SM -DZ BR SCT001 OVC015
      TEMPO 2209/2212 1/4SM FG OVC001
     FM221430 VRB03KT P6SM BKN025 BKN040
     FM221600 17005KT P6SM BKN040=



000
FTUS41 KRNK 220203 AAA
TAFLWB
TAF AMD
KLWB 220203Z 2202/2224 00000KT P6SM BKN200
     FM220400 00000KT 4SM BR OVC025
     FM220600 00000KT 1SM -DZ BR SCT001 OVC015
      TEMPO 2209/2212 1/4SM FG OVC001
     FM221430 VRB03KT P6SM BKN025 BKN040
     FM221600 17005KT P6SM BKN040=



000
FTUS41 KRNK 220202 AAA
TAFLYH
TAF AMD
KLYH 220202Z 2202/2224 VRB03KT P6SM VCSH BKN060
     FM220600 00000KT 4SM BR OVC015
     FM220900 00000KT 2SM BR OVC003
     FM221500 17003KT P6SM SCT025 BKN045
     FM221800 16004KT P6SM VCTS SCT030 BKN045CB=



000
FTUS41 KRNK 220202 AAA
TAFLYH
TAF AMD
KLYH 220202Z 2202/2224 VRB03KT P6SM VCSH BKN060
     FM220600 00000KT 4SM BR OVC015
     FM220900 00000KT 2SM BR OVC003
     FM221500 17003KT P6SM SCT025 BKN045
     FM221800 16004KT P6SM VCTS SCT030 BKN045CB=



000
FTUS41 KRNK 220004 AAA
TAFDAN
TAF AMD
KDAN 220004Z 2200/2224 09004KT P6SM SCT015 BKN040
     FM220500 00000KT 5SM BR SCT006 OVC015
     FM220900 00000KT 3SM BR BKN004 OVC010
     FM221500 14004KT P6SM SCT025 BKN035
     FM221800 15005KT P6SM VCTS SCT030 BKN045CB=



000
FTUS41 KRNK 212322
TAFLYH
TAF
KLYH 212322Z 2200/2224 VRB03KT P6SM VCSH BKN035 BKN060
     FM220200 00000KT P6SM BKN015 BKN040
     FM220600 00000KT 4SM BR OVC015
     FM220900 00000KT 2SM BR OVC003
     FM221500 17003KT P6SM SCT025 BKN045
     FM221800 16004KT P6SM VCTS SCT030 BKN045CB=



000
FTUS41 KRNK 212322
TAFDAN
TAF
KDAN 212322Z 2200/2224 11004KT P6SM VCSH BKN015
     FM220600 00000KT 5SM BR SCT006 OVC015
     FM220900 00000KT 3SM BR BKN004 OVC010
     FM221500 14004KT P6SM SCT025 BKN035
     FM221800 15005KT P6SM VCTS SCT030 BKN045CB=



000
FTUS41 KRNK 212322
TAFBLF
TAF
KBLF 212322Z 2200/2224 14005KT P6SM SCT035 BKN120
     FM220400 14004KT P6SM BKN035
     FM221000 12003KT 5SM BR SCT005 BKN025
     FM221400 14004KT P6SM BKN040=



000
FTUS41 KRNK 212322
TAFBLF
TAF
KBLF 212322Z 2200/2224 14005KT P6SM SCT035 BKN120
     FM220400 14004KT P6SM BKN035
     FM221000 12003KT 5SM BR SCT005 BKN025
     FM221400 14004KT P6SM BKN040=



000
FTUS41 KRNK 212322
TAFLYH
TAF
KLYH 212322Z 2200/2224 VRB03KT P6SM VCSH BKN035 BKN060
     FM220200 00000KT P6SM BKN015 BKN040
     FM220600 00000KT 4SM BR OVC015
     FM220900 00000KT 2SM BR OVC003
     FM221500 17003KT P6SM SCT025 BKN045
     FM221800 16004KT P6SM VCTS SCT030 BKN045CB=



000
FTUS41 KRNK 212322
TAFROA
TAF
KROA 212322Z 2200/2224 14006KT P6SM BKN025
     FM220500 13003KT 5SM -DZ BR OVC015
      TEMPO 2208/2212 2SM BR OVC005
     FM221500 12004KT P6SM SCT020 BKN040
     FM221800 17005KT P6SM VCTS SCT030 BKN045CB=



000
FTUS41 KRNK 212322
TAFROA
TAF
KROA 212322Z 2200/2224 14006KT P6SM BKN025
     FM220500 13003KT 5SM -DZ BR OVC015
      TEMPO 2208/2212 2SM BR OVC005
     FM221500 12004KT P6SM SCT020 BKN040
     FM221800 17005KT P6SM VCTS SCT030 BKN045CB=



000
FTUS41 KRNK 212322
TAFDAN
TAF
KDAN 212322Z 2200/2224 11004KT P6SM VCSH BKN015
     FM220600 00000KT 5SM BR SCT006 OVC015
     FM220900 00000KT 3SM BR BKN004 OVC010
     FM221500 14004KT P6SM SCT025 BKN035
     FM221800 15005KT P6SM VCTS SCT030 BKN045CB=



000
FTUS41 KRNK 212322
TAFLWB
TAF
KLWB 212322Z 2200/2224 14004KT P6SM VCTS BKN040CB
     FM220200 00000KT 4SM BR OVC025
     FM220600 00000KT 1SM -DZ BR SCT001 OVC015
      TEMPO 2209/2212 1/4SM FG OVC001
     FM221430 VRB03KT P6SM BKN025 BKN040
     FM221600 17005KT P6SM BKN040=



000
FTUS41 KRNK 212322
TAFLWB
TAF
KLWB 212322Z 2200/2224 14004KT P6SM VCTS BKN040CB
     FM220200 00000KT 4SM BR OVC025
     FM220600 00000KT 1SM -DZ BR SCT001 OVC015
      TEMPO 2209/2212 1/4SM FG OVC001
     FM221430 VRB03KT P6SM BKN025 BKN040
     FM221600 17005KT P6SM BKN040=



000
FTUS41 KRNK 212029 AAB
TAFLYH
TAF AMD
KLYH 212029Z 2120/2218 14003KT P6SM BKN025
     FM220000 VRB03KT P6SM BKN035 BKN060
     FM220600 00000KT 4SM BR OVC015
     FM220900 00000KT 2SM BR OVC003
     FM221500 17003KT P6SM SCT025 BKN045=



000
FTUS41 KRNK 212029 AAB
TAFLYH
TAF AMD
KLYH 212029Z 2120/2218 14003KT P6SM BKN025
     FM220000 VRB03KT P6SM BKN035 BKN060
     FM220600 00000KT 4SM BR OVC015
     FM220900 00000KT 2SM BR OVC003
     FM221500 17003KT P6SM SCT025 BKN045=



000
FTUS41 KRNK 211843 AAA
TAFLWB
TAF AMD
KLWB 211843Z 2119/2218 13003KT P6SM SCT035 BKN045
     FM212200 14004KT P6SM VCTS BKN035CB
     FM220300 00000KT 4SM BR OVC025
     FM220600 00000KT 1SM -DZ BR SCT001 OVC015
      TEMPO 2209/2212 1/4SM FG OVC001
     FM221430 VRB03KT P6SM BKN025 BKN040=



000
FTUS41 KRNK 211843 AAA
TAFLWB
TAF AMD
KLWB 211843Z 2119/2218 13003KT P6SM SCT035 BKN045
     FM212200 14004KT P6SM VCTS BKN035CB
     FM220300 00000KT 4SM BR OVC025
     FM220600 00000KT 1SM -DZ BR SCT001 OVC015
      TEMPO 2209/2212 1/4SM FG OVC001
     FM221430 VRB03KT P6SM BKN025 BKN040=



000
FTUS41 KRNK 211842 AAA
TAFLYH
TAF AMD
KLYH 211842Z 2119/2218 14003KT P6SM BKN012 OVC025
     FM212100 13004KT P6SM VCSH SCT020 BKN040
     FM220000 VRB03KT P6SM BKN035 BKN060
     FM220600 00000KT 4SM BR OVC015
     FM220900 00000KT 2SM BR OVC003
     FM221500 17003KT P6SM SCT025 BKN045=



000
FTUS41 KRNK 211842 AAA
TAFLYH
TAF AMD
KLYH 211842Z 2119/2218 14003KT P6SM BKN012 OVC025
     FM212100 13004KT P6SM VCSH SCT020 BKN040
     FM220000 VRB03KT P6SM BKN035 BKN060
     FM220600 00000KT 4SM BR OVC015
     FM220900 00000KT 2SM BR OVC003
     FM221500 17003KT P6SM SCT025 BKN045=



000
FTUS41 KRNK 211841 AAA
TAFROA
TAF AMD
KROA 211841Z 2119/2218 14006KT P6SM VCSH FEW015 BKN030
     FM220100 13004KT P6SM BKN035 BKN060
     FM220700 13003KT 5SM -DZ BR OVC015
      TEMPO 2208/2212 2SM BR OVC005
     FM221500 10004KT P6SM SCT020 BKN040=



000
FTUS41 KRNK 211841 AAA
TAFROA
TAF AMD
KROA 211841Z 2119/2218 14006KT P6SM VCSH FEW015 BKN030
     FM220100 13004KT P6SM BKN035 BKN060
     FM220700 13003KT 5SM -DZ BR OVC015
      TEMPO 2208/2212 2SM BR OVC005
     FM221500 10004KT P6SM SCT020 BKN040=



000
FTUS41 KRNK 211729 CCA
TAFDAN
TAF COR
KDAN 211729Z 2117/2218 00000KT P6SM VCTS SCT025 BKN040CB
      TEMPO 2118/2122 5SM -TSRA BKN025CB
     FM220200 13004KT P6SM VCSH OVC025
     FM220600 00000KT 5SM BR SCT006 OVC015
     FM220900 00000KT 3SM BR BKN004 OVC010=



000
FTUS41 KRNK 211729 CCA
TAFDAN
TAF COR
KDAN 211729Z 2117/2218 00000KT P6SM VCTS SCT025 BKN040CB
      TEMPO 2118/2122 5SM -TSRA BKN025CB
     FM220200 13004KT P6SM VCSH OVC025
     FM220600 00000KT 5SM BR SCT006 OVC015
     FM220900 00000KT 3SM BR BKN004 OVC010=



000
FTUS41 KRNK 211721
TAFBLF
TAF
KBLF 211721Z 2118/2218 VRB03KT P6SM VCTS SCT030 BKN045CB
     FM220100 14005KT P6SM VCSH BKN035 OVC080
     FM220400 14004KT P6SM BKN035
     FM221000 12003KT 5SM BR SCT005 BKN025
     FM221400 14004KT P6SM BKN040=



000
FTUS41 KRNK 211721
TAFDAN
TAF
KDAN 211721Z 2118/2218 05004KT P6SM VCTS BKN020 BKN040CB
      TEMPO 2118/2122 3SM TSRA BR BKN025CB
     FM220200 13004KT P6SM VCSH OVC025
     FM220600 00000KT 5SM BR SCT006 OVC015
     FM220900 00000KT 3SM BR BKN004 OVC010
     FM221500 08004KT P6SM SCT030 BKN045=



000
FTUS41 KRNK 211721
TAFROA
TAF
KROA 211721Z 2118/2218 VRB03KT P6SM VCSH BKN015 BKN030
     FM220100 13004KT P6SM BKN035 BKN060
     FM220700 13003KT 5SM -DZ BR OVC015
      TEMPO 2208/2212 2SM BR OVC005
     FM221500 10004KT P6SM SCT020 BKN040=



000
FTUS41 KRNK 211721
TAFLWB
TAF
KLWB 211721Z 2118/2218 10007KT P6SM VCSH BKN025 BKN040
     FM212000 14004KT P6SM VCTS BKN035CB
     FM220300 00000KT 4SM BR OVC025
     FM220600 00000KT 1SM -DZ BR SCT001 OVC015
      TEMPO 2209/2212 1/4SM FG OVC001
     FM221430 VRB03KT P6SM BKN025 BKN040=



000
FTUS41 KRNK 211721
TAFLYH
TAF
KLYH 211721Z 2118/2218 03006KT P6SM VCSH BKN020 BKN035
     FM220100 VRB03KT P6SM BKN035 BKN060
     FM220600 00000KT 4SM BR OVC015
     FM220900 00000KT 2SM BR OVC003
     FM221500 17003KT P6SM SCT025 BKN045=



000
FTUS41 KRNK 211721
TAFLWB
TAF
KLWB 211721Z 2118/2218 10007KT P6SM VCSH BKN025 BKN040
     FM212000 14004KT P6SM VCTS BKN035CB
     FM220300 00000KT 4SM BR OVC025
     FM220600 00000KT 1SM -DZ BR SCT001 OVC015
      TEMPO 2209/2212 1/4SM FG OVC001
     FM221430 VRB03KT P6SM BKN025 BKN040=



000
FTUS41 KRNK 211721
TAFDAN
TAF
KDAN 211721Z 2118/2218 05004KT P6SM VCTS BKN020 BKN040CB
      TEMPO 2118/2122 3SM TSRA BR BKN025CB
     FM220200 13004KT P6SM VCSH OVC025
     FM220600 00000KT 5SM BR SCT006 OVC015
     FM220900 00000KT 3SM BR BKN004 OVC010
     FM221500 08004KT P6SM SCT030 BKN045=



000
FTUS41 KRNK 211721
TAFBLF
TAF
KBLF 211721Z 2118/2218 VRB03KT P6SM VCTS SCT030 BKN045CB
     FM220100 14005KT P6SM VCSH BKN035 OVC080
     FM220400 14004KT P6SM BKN035
     FM221000 12003KT 5SM BR SCT005 BKN025
     FM221400 14004KT P6SM BKN040=



000
FTUS41 KRNK 211721
TAFROA
TAF
KROA 211721Z 2118/2218 VRB03KT P6SM VCSH BKN015 BKN030
     FM220100 13004KT P6SM BKN035 BKN060
     FM220700 13003KT 5SM -DZ BR OVC015
      TEMPO 2208/2212 2SM BR OVC005
     FM221500 10004KT P6SM SCT020 BKN040=



000
FTUS41 KRNK 211721
TAFLYH
TAF
KLYH 211721Z 2118/2218 03006KT P6SM VCSH BKN020 BKN035
     FM220100 VRB03KT P6SM BKN035 BKN060
     FM220600 00000KT 4SM BR OVC015
     FM220900 00000KT 2SM BR OVC003
     FM221500 17003KT P6SM SCT025 BKN045=



000
FTUS41 KRNK 211555 AAB
TAFROA
TAF AMD
KROA 211555Z 2116/2212 00000KT P6SM VCSH SCT015 BKN040
     FM211900 14006KT P6SM VCSH SCT015 OVC035
     FM220100 13004KT P6SM BKN035 OVC250
     FM220700 13003KT 5SM -DZ BR OVC015=



000
FTUS41 KRNK 211555 AAB
TAFROA
TAF AMD
KROA 211555Z 2116/2212 00000KT P6SM VCSH SCT015 BKN040
     FM211900 14006KT P6SM VCSH SCT015 OVC035
     FM220100 13004KT P6SM BKN035 OVC250
     FM220700 13003KT 5SM -DZ BR OVC015=



000
FTUS41 KRNK 211505 AAB
TAFLWB
TAF AMD
KLWB 211505Z 2115/2212 VRB03KT P6SM SCT015 OVC030
     FM211700 14005KT P6SM VCSH SCT030 BKN050
     FM212000 14004KT P6SM VCTS BKN035CB
     FM220100 00000KT 4SM -DZ BR OVC025
     FM220600 00000KT 1SM -DZ BR OVC015=



000
FTUS41 KRNK 211504 AAB
TAFLYH
TAF AMD
KLYH 211504Z 2115/2212 01007KT P6SM VCSH BKN005 OVC015
      TEMPO 2115/2116 6SM -SHRA BR SCT012 OVC025
     FM211600 13005KT P6SM VCSH BKN020 OVC045
     FM211800 13005KT P6SM VCTS SCT025 BKN040CB
     FM220100 VRB03KT P6SM BKN035 OVC250
     FM220600 00000KT 4SM -DZ BR OVC015=



000
FTUS41 KRNK 211504 AAB
TAFLYH
TAF AMD
KLYH 211504Z 2115/2212 01007KT P6SM VCSH BKN005 OVC015
      TEMPO 2115/2116 6SM -SHRA BR SCT012 OVC025
     FM211600 13005KT P6SM VCSH BKN020 OVC045
     FM211800 13005KT P6SM VCTS SCT025 BKN040CB
     FM220100 VRB03KT P6SM BKN035 OVC250
     FM220600 00000KT 4SM -DZ BR OVC015=



000
FTUS41 KRNK 211414 AAA
TAFROA
TAF AMD
KROA 211414Z 2114/2212 VRB03KT 2SM -SHRA BR SCT005 OVC012
      TEMPO 2114/2116 5SM -SHRA BR BKN005
     FM211900 14006KT P6SM VCSH SCT015 OVC035
     FM220100 13004KT P6SM BKN035 OVC250
     FM220700 13003KT 5SM -DZ BR OVC015=



000
FTUS41 KRNK 211351 AAA
TAFLWB
TAF AMD
KLWB 211351Z 2114/2212 VRB03KT P6SM BKN040
     FM211600 14005KT P6SM VCSH SCT030 BKN050
     FM212000 14004KT P6SM VCTS BKN035CB
     FM220100 00000KT 4SM -DZ BR OVC025
     FM220600 00000KT 1SM -DZ BR OVC015=



000
FTUS41 KRNK 211350 AAA
TAFDAN
TAF AMD
KDAN 211350Z 2114/2212 05007KT P6SM VCSH OVC003
     FM211600 13006KT P6SM VCSH BKN010 OVC025
     FM211800 14006KT P6SM VCTS SCT025 BKN040CB
      TEMPO 2118/2122 3SM TSRA BR BKN025CB
     FM220200 13004KT P6SM VCSH OVC025
     FM220600 00000KT 5SM BR OVC015=



000
FTUS41 KRNK 211350 AAA
TAFDAN
TAF AMD
KDAN 211350Z 2114/2212 05007KT P6SM VCSH OVC003
     FM211600 13006KT P6SM VCSH BKN010 OVC025
     FM211800 14006KT P6SM VCTS SCT025 BKN040CB
      TEMPO 2118/2122 3SM TSRA BR BKN025CB
     FM220200 13004KT P6SM VCSH OVC025
     FM220600 00000KT 5SM BR OVC015=



000
FTUS41 KRNK 211347 AAA
TAFLYH
TAF AMD
KLYH 211347Z 2114/2212 VRB03KT 3SM -SHRA BR BKN007 OVC015
      TEMPO 2114/2116 6SM -SHRA BR SCT012 OVC025
     FM211600 13005KT P6SM VCSH BKN020 OVC045
     FM211800 13005KT P6SM VCTS SCT025 BKN040CB
     FM220100 VRB03KT P6SM BKN035 OVC250
     FM220600 00000KT 4SM -DZ BR OVC015=



000
FTUS41 KRNK 211347 AAA
TAFLYH
TAF AMD
KLYH 211347Z 2114/2212 VRB03KT 3SM -SHRA BR BKN007 OVC015
      TEMPO 2114/2116 6SM -SHRA BR SCT012 OVC025
     FM211600 13005KT P6SM VCSH BKN020 OVC045
     FM211800 13005KT P6SM VCTS SCT025 BKN040CB
     FM220100 VRB03KT P6SM BKN035 OVC250
     FM220600 00000KT 4SM -DZ BR OVC015=



000
FTUS41 KRNK 211325 AAA
TAFBLF
TAF AMD
KBLF 211325Z 2113/2212 VRB03KT P6SM SCT015
      TEMPO 2114/2116 BKN020
     FM211600 15007KT P6SM BKN030
     FM211800 15006KT P6SM VCTS BKN040CB
     FM220100 14005KT P6SM VCSH BKN035 OVC080
     FM220400 14004KT P6SM OVC012=



000
FTUS41 KRNK 211325 AAA
TAFBLF
TAF AMD
KBLF 211325Z 2113/2212 VRB03KT P6SM SCT015
      TEMPO 2114/2116 BKN020
     FM211600 15007KT P6SM BKN030
     FM211800 15006KT P6SM VCTS BKN040CB
     FM220100 14005KT P6SM VCSH BKN035 OVC080
     FM220400 14004KT P6SM OVC012=



000
FTUS41 KRNK 211138
TAFLWB
TAF
KLWB 211138Z 2112/2212 VRB03KT 4SM BR OVC023
     FM211400 14003KT P6SM OVC028
     FM211600 14005KT P6SM VCSH BKN030 OVC045
     FM212000 14004KT P6SM VCTS BKN035CB
     FM220100 00000KT 4SM -DZ BR OVC025
     FM220600 00000KT 1SM -DZ BR OVC015=



000
FTUS41 KRNK 211138
TAFBLF
TAF
KBLF 211138Z 2112/2212 14005KT P6SM SCT010
      TEMPO 2112/2114 OVC010
     FM211400 15006KT P6SM BKN015
     FM211600 15007KT P6SM BKN030
     FM211800 15006KT P6SM VCTS BKN040CB
     FM220100 14005KT P6SM VCSH BKN035 OVC080
     FM220400 14004KT P6SM OVC012=



000
FTUS41 KRNK 211138
TAFLYH
TAF
KLYH 211138Z 2112/2212 VRB03KT P6SM -RA OVC025
      TEMPO 2112/2116 4SM -SHRA BR
     FM211600 13005KT P6SM VCSH BKN030 OVC045
     FM211800 13005KT P6SM VCTS SCT025 BKN040CB
     FM220100 VRB03KT P6SM BKN035 OVC250
     FM220600 00000KT 4SM -DZ BR OVC015=



000
FTUS41 KRNK 211138
TAFROA
TAF
KROA 211138Z 2112/2212 13005KT P6SM -RA OVC015
     FM211500 14007KT P6SM VCSH OVC020
     FM211900 14006KT P6SM VCTS SCT025 BKN040CB
     FM220100 13004KT P6SM BKN035 OVC250
     FM220700 13003KT 5SM -DZ BR OVC015=



000
FTUS41 KRNK 211138
TAFDAN
TAF
KDAN 211138Z 2112/2212 VRB03KT P6SM VCSH OVC006
      TEMPO 2112/2116 4SM -SHRA BR OVC010
     FM211600 13006KT P6SM VCSH BKN025 OVC040
     FM211800 14006KT P6SM VCTS SCT025 BKN040CB
      TEMPO 2118/2122 3SM TSRA BR BKN025CB
     FM220200 13004KT P6SM VCSH OVC025
     FM220600 00000KT 5SM BR OVC015=



000
FTUS41 KRNK 211138
TAFROA
TAF
KROA 211138Z 2112/2212 13005KT P6SM -RA OVC015
     FM211500 14007KT P6SM VCSH OVC020
     FM211900 14006KT P6SM VCTS SCT025 BKN040CB
     FM220100 13004KT P6SM BKN035 OVC250
     FM220700 13003KT 5SM -DZ BR OVC015=



000
FTUS41 KRNK 211138
TAFLWB
TAF
KLWB 211138Z 2112/2212 VRB03KT 4SM BR OVC023
     FM211400 14003KT P6SM OVC028
     FM211600 14005KT P6SM VCSH BKN030 OVC045
     FM212000 14004KT P6SM VCTS BKN035CB
     FM220100 00000KT 4SM -DZ BR OVC025
     FM220600 00000KT 1SM -DZ BR OVC015=



000
FTUS41 KRNK 211138
TAFDAN
TAF
KDAN 211138Z 2112/2212 VRB03KT P6SM VCSH OVC006
      TEMPO 2112/2116 4SM -SHRA BR OVC010
     FM211600 13006KT P6SM VCSH BKN025 OVC040
     FM211800 14006KT P6SM VCTS SCT025 BKN040CB
      TEMPO 2118/2122 3SM TSRA BR BKN025CB
     FM220200 13004KT P6SM VCSH OVC025
     FM220600 00000KT 5SM BR OVC015=



000
FTUS41 KRNK 211138
TAFBLF
TAF
KBLF 211138Z 2112/2212 14005KT P6SM SCT010
      TEMPO 2112/2114 OVC010
     FM211400 15006KT P6SM BKN015
     FM211600 15007KT P6SM BKN030
     FM211800 15006KT P6SM VCTS BKN040CB
     FM220100 14005KT P6SM VCSH BKN035 OVC080
     FM220400 14004KT P6SM OVC012=



000
FTUS41 KRNK 211138
TAFLYH
TAF
KLYH 211138Z 2112/2212 VRB03KT P6SM -RA OVC025
      TEMPO 2112/2116 4SM -SHRA BR
     FM211600 13005KT P6SM VCSH BKN030 OVC045
     FM211800 13005KT P6SM VCTS SCT025 BKN040CB
     FM220100 VRB03KT P6SM BKN035 OVC250
     FM220600 00000KT 4SM -DZ BR OVC015=



000
FTUS41 KRNK 211006 AAA
TAFROA
TAF AMD
KROA 211006Z 2110/2206 00000KT P6SM OVC020
      TEMPO 2110/2111 OVC018
     FM211100 11003KT P6SM OVC018
     FM211500 13006KT P6SM -SHRA SCT025 BKN040
     FM220500 11002KT 4SM BR BKN025=



000
FTUS41 KRNK 211006 AAA
TAFROA
TAF AMD
KROA 211006Z 2110/2206 00000KT P6SM OVC020
      TEMPO 2110/2111 OVC018
     FM211100 11003KT P6SM OVC018
     FM211500 13006KT P6SM -SHRA SCT025 BKN040
     FM220500 11002KT 4SM BR BKN025=



000
FTUS41 KRNK 210956 AAB
TAFLWB
TAF AMD
KLWB 210956Z 2110/2206 02003KT P6SM BKN025
     FM211500 14003KT P6SM -SHRA SCT025 BKN035
     FM220000 VRB03KT P6SM OVC035=



000
FTUS41 KRNK 210956 AAB
TAFLWB
TAF AMD
KLWB 210956Z 2110/2206 02003KT P6SM BKN025
     FM211500 14003KT P6SM -SHRA SCT025 BKN035
     FM220000 VRB03KT P6SM OVC035=



000
FTUS41 KRNK 210953 AAA
TAFBLF
TAF AMD
KBLF 210953Z 2110/2206 14004KT P6SM OVC011
     FM211100 13002KT 6SM BR OVC008
     FM211400 14005KT P6SM BKN015
     FM211700 14004KT 6SM -SHRA SCT025 BKN040
     FM220000 VRB03KT P6SM OVC035
     FM220400 15002KT 4SM BR OVC015=



000
FTUS41 KRNK 210953 AAA
TAFBLF
TAF AMD
KBLF 210953Z 2110/2206 14004KT P6SM OVC011
     FM211100 13002KT 6SM BR OVC008
     FM211400 14005KT P6SM BKN015
     FM211700 14004KT 6SM -SHRA SCT025 BKN040
     FM220000 VRB03KT P6SM OVC035
     FM220400 15002KT 4SM BR OVC015=



000
FTUS41 KRNK 210951 AAA
TAFDAN
TAF AMD
KDAN 210951Z 2110/2206 06004KT P6SM BKN005 OVC010
     FM211300 06004KT 6SM BR OVC015
     FM211500 05003KT 6SM BR OVC025
     FM211700 10005KT P6SM -SHRA BKN035
     FM220400 21002KT 4SM BR OVC015=



000
FTUS41 KRNK 210951 AAA
TAFDAN
TAF AMD
KDAN 210951Z 2110/2206 06004KT P6SM BKN005 OVC010
     FM211300 06004KT 6SM BR OVC015
     FM211500 05003KT 6SM BR OVC025
     FM211700 10005KT P6SM -SHRA BKN035
     FM220400 21002KT 4SM BR OVC015=



000
FTUS41 KRNK 210949 AAA
TAFLYH
TAF AMD
KLYH 210949Z 2110/2206 00000KT P6SM SCT050 OVC080
     FM211200 05003KT 6SM BR SCT025 OVC035
     FM211600 10005KT P6SM -SHRA BKN035
     FM220500 21001KT 4SM BR OVC025=



000
FTUS41 KRNK 210949 AAA
TAFLYH
TAF AMD
KLYH 210949Z 2110/2206 00000KT P6SM SCT050 OVC080
     FM211200 05003KT 6SM BR SCT025 OVC035
     FM211600 10005KT P6SM -SHRA BKN035
     FM220500 21001KT 4SM BR OVC025=



000
FTUS41 KRNK 210734 AAA
TAFLWB
TAF AMD
KLWB 210734Z 2108/2206 01004KT P6SM OVC016
     FM211000 00000KT 4SM BR BKN009
     FM211400 VRB03KT 6SM BR SCT007 BKN015
     FM211600 14003KT P6SM -SHRA SCT025 BKN035
     FM220000 VRB03KT P6SM OVC035=



000
FTUS41 KRNK 210734 AAA
TAFLWB
TAF AMD
KLWB 210734Z 2108/2206 01004KT P6SM OVC016
     FM211000 00000KT 4SM BR BKN009
     FM211400 VRB03KT 6SM BR SCT007 BKN015
     FM211600 14003KT P6SM -SHRA SCT025 BKN035
     FM220000 VRB03KT P6SM OVC035=



000
FTUS41 KRNK 210540
TAFROA
TAF
KROA 210540Z 2106/2206 00000KT P6SM BKN019 OVC045
      TEMPO 2106/2108 SCT019 OVC040
     FM211000 10002KT 5SM BR OVC009
     FM211400 11003KT P6SM BKN015
     FM211700 13006KT P6SM -SHRA SCT025 BKN040
     FM220500 11002KT 4SM BR BKN025=



000
FTUS41 KRNK 210540
TAFBLF
TAF
KBLF 210540Z 2106/2206 VRB05KT P6SM OVC010
     FM210700 13002KT 5SM BR OVC008
     FM211400 14005KT P6SM BKN015
     FM211700 14004KT 6SM -SHRA SCT025 BKN040
     FM220000 VRB03KT P6SM OVC035
     FM220400 15002KT 4SM BR OVC015=



000
FTUS41 KRNK 210540
TAFLYH
TAF
KLYH 210540Z 2106/2206 00000KT P6SM BKN040
     FM210900 00000KT 5SM BR SCT005 OVC015
     FM211100 00000KT 2SM BR BKN005
     FM211400 05003KT 6SM BR SCT005 OVC015
     FM211600 10005KT P6SM -SHRA BKN035
     FM220500 21001KT 4SM BR OVC025=



000
FTUS41 KRNK 210540
TAFLYH
TAF
KLYH 210540Z 2106/2206 00000KT P6SM BKN040
     FM210900 00000KT 5SM BR SCT005 OVC015
     FM211100 00000KT 2SM BR BKN005
     FM211400 05003KT 6SM BR SCT005 OVC015
     FM211600 10005KT P6SM -SHRA BKN035
     FM220500 21001KT 4SM BR OVC025=



000
FTUS41 KRNK 210540
TAFLWB
TAF
KLWB 210540Z 2106/2206 00000KT P6SM OVC035
     FM210800 13003KT 3SM BR OVC015
     FM211000 00000KT 1/2SM FG BKN004
     FM211400 VRB03KT 5SM BR SCT007 BKN015
     FM211600 14003KT P6SM -SHRA SCT025 BKN035
     FM220000 VRB03KT P6SM OVC035=



000
FTUS41 KRNK 210540
TAFROA
TAF
KROA 210540Z 2106/2206 00000KT P6SM BKN019 OVC045
      TEMPO 2106/2108 SCT019 OVC040
     FM211000 10002KT 5SM BR OVC009
     FM211400 11003KT P6SM BKN015
     FM211700 13006KT P6SM -SHRA SCT025 BKN040
     FM220500 11002KT 4SM BR BKN025=



000
FTUS41 KRNK 210540
TAFBLF
TAF
KBLF 210540Z 2106/2206 VRB05KT P6SM OVC010
     FM210700 13002KT 5SM BR OVC008
     FM211400 14005KT P6SM BKN015
     FM211700 14004KT 6SM -SHRA SCT025 BKN040
     FM220000 VRB03KT P6SM OVC035
     FM220400 15002KT 4SM BR OVC015=



000
FTUS41 KRNK 210540
TAFDAN
TAF
KDAN 210540Z 2106/2206 00000KT P6SM SCT029 BKN045
     FM210800 00000KT 6SM -SHRA BR OVC015
     FM211500 05003KT 6SM BR OVC025
     FM211700 10005KT P6SM -SHRA BKN035
     FM220400 21002KT 4SM BR OVC015=



000
FTUS41 KRNK 210540
TAFLWB
TAF
KLWB 210540Z 2106/2206 00000KT P6SM OVC035
     FM210800 13003KT 3SM BR OVC015
     FM211000 00000KT 1/2SM FG BKN004
     FM211400 VRB03KT 5SM BR SCT007 BKN015
     FM211600 14003KT P6SM -SHRA SCT025 BKN035
     FM220000 VRB03KT P6SM OVC035=



000
FTUS41 KRNK 210540
TAFDAN
TAF
KDAN 210540Z 2106/2206 00000KT P6SM SCT029 BKN045
     FM210800 00000KT 6SM -SHRA BR OVC015
     FM211500 05003KT 6SM BR OVC025
     FM211700 10005KT P6SM -SHRA BKN035
     FM220400 21002KT 4SM BR OVC015=



000
FTUS41 KRNK 210302 AAA
TAFLWB
TAF AMD
KLWB 210302Z 2103/2124 00000KT P6SM OVC025
     FM210800 13003KT 3SM BR OVC015
     FM211000 00000KT 1/2SM FG BKN004
     FM211400 VRB03KT 5SM BR SCT007 BKN015
     FM211600 14003KT P6SM BKN025
     FM212100 15003KT P6SM SCT025 BKN040=



000
FTUS41 KRNK 210302 AAA
TAFLWB
TAF AMD
KLWB 210302Z 2103/2124 00000KT P6SM OVC025
     FM210800 13003KT 3SM BR OVC015
     FM211000 00000KT 1/2SM FG BKN004
     FM211400 VRB03KT 5SM BR SCT007 BKN015
     FM211600 14003KT P6SM BKN025
     FM212100 15003KT P6SM SCT025 BKN040=



000
FTUS41 KRNK 210302 AAB
TAFBLF
TAF AMD
KBLF 210302Z 2103/2124 14004KT 6SM -SHRA BR BKN012 OVC035
     FM210500 13003KT 5SM BR OVC025
     FM211500 14005KT P6SM SCT025 BKN050=



000
FTUS41 KRNK 210302 AAB
TAFBLF
TAF AMD
KBLF 210302Z 2103/2124 14004KT 6SM -SHRA BR BKN012 OVC035
     FM210500 13003KT 5SM BR OVC025
     FM211500 14005KT P6SM SCT025 BKN050=



000
FTUS41 KRNK 210301 AAA
TAFROA
TAF AMD
KROA 210301Z 2103/2124 11004KT P6SM OVC022
     FM210900 14003KT 6SM BR OVC015
     FM211500 12006KT P6SM SCT025 BKN040=



000
FTUS41 KRNK 210301 AAA
TAFROA
TAF AMD
KROA 210301Z 2103/2124 11004KT P6SM OVC022
     FM210900 14003KT 6SM BR OVC015
     FM211500 12006KT P6SM SCT025 BKN040=



000
FTUS41 KRNK 210216 AAA
TAFDAN
TAF AMD
KDAN 210216Z 2102/2124 08003KT P6SM -SHRA SCT025 BKN050
     FM210400 17010G20KT 5SM -TSRA OVC035CB
     FM210600 00000KT 6SM BR OVC025
     FM210800 00000KT 4SM BR OVC015
     FM211500 08006KT P6SM BKN040=



000
FTUS41 KRNK 210216 AAA
TAFDAN
TAF AMD
KDAN 210216Z 2102/2124 08003KT P6SM -SHRA SCT025 BKN050
     FM210400 17010G20KT 5SM -TSRA OVC035CB
     FM210600 00000KT 6SM BR OVC025
     FM210800 00000KT 4SM BR OVC015
     FM211500 08006KT P6SM BKN040=



000
FTUS41 KRNK 210131 AAA
TAFBLF
TAF AMD
KBLF 210131Z 2102/2124 15003KT P6SM VCTS BKN050CB
      TEMPO 2102/2103 4SM -TSRA BKN035CB
     FM210300 14004KT 6SM BR VCSH BKN040
     FM210600 13003KT 5SM BR OVC025
     FM211500 14005KT P6SM SCT025 BKN050=



    US Dept of Commerce
    National Oceanic and Atmospheric Administration
    National Weather Service
    1325 East West Highway
    Silver Spring, MD 20910
    Page Author: NWS Internet Services Team
Disclaimer
Information Quality
Credits
Glossary
Privacy Policy
Freedom of Information Act (FOIA)
About Us
Career Opportunities